sensor_id;sensor_type;location;lat;lon;timestamp;P1;durP1;ratioP1;P2;durP2;ratioP2
64375;SDS011;50700;55.416;12.952;2022-07-29T00:00:45;8.52;;;4.80;;
64375;SDS011;50700;55.416;12.952;2022-07-29T00:03:11;10.93;;;5.45;;
64375;SDS011;50700;55.416;12.952;2022-07-29T00:05:38;8.82;;;5.20;;
64375;SDS011;50700;55.416;12.952;2022-07-29T00:08:05;10.35;;;5.45;;
64375;SDS011;50700;55.416;12.952;2022-07-29T00:10:31;8.32;;;4.80;;
64375;SDS011;50700;55.416;12.952;2022-07-29T00:12:57;9.43;;;5.80;;
64375;SDS011;50700;55.416;12.952;2022-07-29T00:15:23;11.52;;;5.80;;
64375;SDS011;50700;55.416;12.952;2022-07-29T00:17:50;11.50;;;5.68;;
64375;SDS011;50700;55.416;12.952;2022-07-29T00:20:16;10.35;;;5.93;;
64375;SDS011;50700;55.416;12.952;2022-07-29T00:22:42;10.43;;;6.03;;
64375;SDS011;50700;55.416;12.952;2022-07-29T00:25:08;12.65;;;6.40;;
64375;SDS011;50700;55.416;12.952;2022-07-29T00:27:35;14.95;;;7.28;;
64375;SDS011;50700;55.416;12.952;2022-07-29T00:30:02;11.25;;;7.43;;
64375;SDS011;50700;55.416;12.952;2022-07-29T00:32:28;17.67;;;7.68;;
64375;SDS011;50700;55.416;12.952;2022-07-29T00:34:55;8.95;;;6.18;;
64375;SDS011;50700;55.416;12.952;2022-07-29T00:37:39;9.38;;;6.10;;
64375;SDS011;50700;55.416;12.952;2022-07-29T00:40:06;12.13;;;7.38;;
64375;SDS011;50700;55.416;12.952;2022-07-29T00:42:41;10.55;;;6.88;;
64375;SDS011;50700;55.416;12.952;2022-07-29T00:45:07;12.23;;;7.20;;
64375;SDS011;50700;55.416;12.952;2022-07-29T00:47:34;10.02;;;6.43;;
64375;SDS011;50700;55.416;12.952;2022-07-29T00:50:00;12.00;;;6.78;;
64375;SDS011;50700;55.416;12.952;2022-07-29T00:52:26;10.82;;;6.30;;
64375;SDS011;50700;55.416;12.952;2022-07-29T00:54:53;9.13;;;5.88;;
64375;SDS011;50700;55.416;12.952;2022-07-29T00:57:19;10.57;;;5.95;;
64375;SDS011;50700;55.416;12.952;2022-07-29T00:59:45;8.80;;;5.03;;
64375;SDS011;50700;55.416;12.952;2022-07-29T01:02:12;9.60;;;5.38;;
64375;SDS011;50700;55.416;12.952;2022-07-29T01:04:38;12.73;;;6.85;;
64375;SDS011;50700;55.416;12.952;2022-07-29T01:07:04;11.23;;;5.70;;
64375;SDS011;50700;55.416;12.952;2022-07-29T01:09:33;9.07;;;5.32;;
64375;SDS011;50700;55.416;12.952;2022-07-29T01:12:00;9.88;;;5.60;;
64375;SDS011;50700;55.416;12.952;2022-07-29T01:14:27;9.35;;;5.10;;
64375;SDS011;50700;55.416;12.952;2022-07-29T01:17:10;7.43;;;4.53;;
64375;SDS011;50700;55.416;12.952;2022-07-29T01:22:28;9.98;;;5.22;;
64375;SDS011;50700;55.416;12.952;2022-07-29T01:28:01;8.40;;;4.72;;
64375;SDS011;50700;55.416;12.952;2022-07-29T01:30:26;9.52;;;4.55;;
64375;SDS011;50700;55.416;12.952;2022-07-29T01:32:54;8.93;;;5.32;;
64375;SDS011;50700;55.416;12.952;2022-07-29T01:35:26;11.88;;;5.90;;
64375;SDS011;50700;55.416;12.952;2022-07-29T01:38:17;11.52;;;7.55;;
64375;SDS011;50700;55.416;12.952;2022-07-29T01:40:45;13.20;;;7.20;;
64375;SDS011;50700;55.416;12.952;2022-07-29T01:43:13;13.30;;;7.25;;
64375;SDS011;50700;55.416;12.952;2022-07-29T01:45:45;10.50;;;6.25;;
64375;SDS011;50700;55.416;12.952;2022-07-29T01:49:13;9.60;;;6.90;;
64375;SDS011;50700;55.416;12.952;2022-07-29T01:56:21;12.43;;;7.03;;
64375;SDS011;50700;55.416;12.952;2022-07-29T01:58:49;11.82;;;6.38;;
64375;SDS011;50700;55.416;12.952;2022-07-29T02:01:15;12.25;;;6.22;;
64375;SDS011;50700;55.416;12.952;2022-07-29T02:03:45;10.02;;;6.22;;
64375;SDS011;50700;55.416;12.952;2022-07-29T02:06:12;11.77;;;5.88;;
64375;SDS011;50700;55.416;12.952;2022-07-29T02:08:39;13.73;;;6.05;;
64375;SDS011;50700;55.416;12.952;2022-07-29T02:11:06;9.88;;;6.32;;
64375;SDS011;50700;55.416;12.952;2022-07-29T02:13:34;7.88;;;5.68;;
64375;SDS011;50700;55.416;12.952;2022-07-29T02:16:01;13.02;;;5.72;;
64375;SDS011;50700;55.416;12.952;2022-07-29T02:18:28;10.45;;;6.18;;
64375;SDS011;50700;55.416;12.952;2022-07-29T02:20:56;10.55;;;5.60;;
64375;SDS011;50700;55.416;12.952;2022-07-29T02:23:24;10.05;;;5.65;;
64375;SDS011;50700;55.416;12.952;2022-07-29T02:25:53;9.35;;;4.97;;
64375;SDS011;50700;55.416;12.952;2022-07-29T02:28:20;8.98;;;5.70;;
64375;SDS011;50700;55.416;12.952;2022-07-29T02:30:48;13.80;;;7.22;;
64375;SDS011;50700;55.416;12.952;2022-07-29T02:33:15;13.18;;;6.95;;
64375;SDS011;50700;55.416;12.952;2022-07-29T02:35:43;10.98;;;5.85;;
64375;SDS011;50700;55.416;12.952;2022-07-29T02:38:12;8.77;;;5.80;;
64375;SDS011;50700;55.416;12.952;2022-07-29T02:40:57;7.68;;;5.25;;
64375;SDS011;50700;55.416;12.952;2022-07-29T02:43:25;9.88;;;5.43;;
64375;SDS011;50700;55.416;12.952;2022-07-29T02:45:51;11.85;;;5.43;;
64375;SDS011;50700;55.416;12.952;2022-07-29T02:48:19;12.30;;;5.63;;
64375;SDS011;50700;55.416;12.952;2022-07-29T02:50:51;9.35;;;5.70;;
64375;SDS011;50700;55.416;12.952;2022-07-29T02:53:22;7.85;;;5.60;;
64375;SDS011;50700;55.416;12.952;2022-07-29T02:55:51;13.05;;;5.40;;
64375;SDS011;50700;55.416;12.952;2022-07-29T02:58:24;9.93;;;5.60;;
64375;SDS011;50700;55.416;12.952;2022-07-29T03:00:53;12.48;;;5.28;;
64375;SDS011;50700;55.416;12.952;2022-07-29T03:03:21;10.52;;;5.20;;
64375;SDS011;50700;55.416;12.952;2022-07-29T03:05:48;7.22;;;5.20;;
64375;SDS011;50700;55.416;12.952;2022-07-29T03:08:14;9.98;;;5.45;;
64375;SDS011;50700;55.416;12.952;2022-07-29T03:10:45;8.48;;;5.75;;
64375;SDS011;50700;55.416;12.952;2022-07-29T03:13:12;10.00;;;4.63;;
64375;SDS011;50700;55.416;12.952;2022-07-29T03:15:38;8.40;;;5.13;;
64375;SDS011;50700;55.416;12.952;2022-07-29T03:18:05;11.75;;;4.63;;
64375;SDS011;50700;55.416;12.952;2022-07-29T03:20:31;8.13;;;4.55;;
64375;SDS011;50700;55.416;12.952;2022-07-29T03:22:58;8.55;;;4.88;;
64375;SDS011;50700;55.416;12.952;2022-07-29T03:25:24;8.50;;;4.75;;
64375;SDS011;50700;55.416;12.952;2022-07-29T03:27:52;10.55;;;4.82;;
64375;SDS011;50700;55.416;12.952;2022-07-29T03:30:18;11.93;;;4.95;;
64375;SDS011;50700;55.416;12.952;2022-07-29T03:32:45;14.27;;;4.75;;
64375;SDS011;50700;55.416;12.952;2022-07-29T03:35:11;8.27;;;4.55;;
64375;SDS011;50700;55.416;12.952;2022-07-29T03:37:37;7.22;;;4.75;;
64375;SDS011;50700;55.416;12.952;2022-07-29T03:40:05;7.78;;;4.78;;
64375;SDS011;50700;55.416;12.952;2022-07-29T03:42:32;10.95;;;5.85;;
64375;SDS011;50700;55.416;12.952;2022-07-29T03:45:00;9.70;;;4.78;;
64375;SDS011;50700;55.416;12.952;2022-07-29T03:47:28;9.02;;;4.80;;
64375;SDS011;50700;55.416;12.952;2022-07-29T03:49:56;9.77;;;4.85;;
64375;SDS011;50700;55.416;12.952;2022-07-29T03:52:25;9.52;;;5.00;;
64375;SDS011;50700;55.416;12.952;2022-07-29T03:54:52;10.85;;;5.47;;
64375;SDS011;50700;55.416;12.952;2022-07-29T03:57:18;9.60;;;5.75;;
64375;SDS011;50700;55.416;12.952;2022-07-29T03:59:46;9.63;;;5.55;;
64375;SDS011;50700;55.416;12.952;2022-07-29T04:02:12;9.88;;;5.22;;
64375;SDS011;50700;55.416;12.952;2022-07-29T04:04:39;8.38;;;5.13;;
64375;SDS011;50700;55.416;12.952;2022-07-29T04:07:05;9.75;;;5.47;;
64375;SDS011;50700;55.416;12.952;2022-07-29T04:09:31;12.00;;;4.93;;
64375;SDS011;50700;55.416;12.952;2022-07-29T04:11:57;12.02;;;4.65;;
64375;SDS011;50700;55.416;12.952;2022-07-29T04:14:23;11.25;;;5.22;;
64375;SDS011;50700;55.416;12.952;2022-07-29T04:16:49;14.00;;;5.57;;
64375;SDS011;50700;55.416;12.952;2022-07-29T04:19:16;9.20;;;5.45;;
64375;SDS011;50700;55.416;12.952;2022-07-29T04:21:42;10.07;;;4.85;;
64375;SDS011;50700;55.416;12.952;2022-07-29T04:24:10;10.15;;;5.50;;
64375;SDS011;50700;55.416;12.952;2022-07-29T04:26:36;10.80;;;5.80;;
64375;SDS011;50700;55.416;12.952;2022-07-29T04:29:02;11.38;;;5.72;;
64375;SDS011;50700;55.416;12.952;2022-07-29T04:31:29;12.43;;;5.00;;
64375;SDS011;50700;55.416;12.952;2022-07-29T04:33:55;12.30;;;5.30;;
64375;SDS011;50700;55.416;12.952;2022-07-29T04:36:21;7.72;;;4.50;;
64375;SDS011;50700;55.416;12.952;2022-07-29T04:38:47;9.00;;;4.65;;
64375;SDS011;50700;55.416;12.952;2022-07-29T04:41:13;9.43;;;4.60;;
64375;SDS011;50700;55.416;12.952;2022-07-29T04:43:40;7.70;;;4.75;;
64375;SDS011;50700;55.416;12.952;2022-07-29T04:46:06;8.93;;;4.50;;
64375;SDS011;50700;55.416;12.952;2022-07-29T04:48:32;7.47;;;4.20;;
64375;SDS011;50700;55.416;12.952;2022-07-29T04:50:59;11.27;;;5.20;;
64375;SDS011;50700;55.416;12.952;2022-07-29T04:53:25;10.73;;;4.40;;
64375;SDS011;50700;55.416;12.952;2022-07-29T04:55:51;8.90;;;4.65;;
64375;SDS011;50700;55.416;12.952;2022-07-29T04:58:18;9.15;;;5.32;;
64375;SDS011;50700;55.416;12.952;2022-07-29T05:00:44;7.78;;;3.85;;
64375;SDS011;50700;55.416;12.952;2022-07-29T05:03:10;11.05;;;4.35;;
64375;SDS011;50700;55.416;12.952;2022-07-29T05:05:36;6.38;;;4.00;;
64375;SDS011;50700;55.416;12.952;2022-07-29T05:08:03;8.48;;;3.70;;
64375;SDS011;50700;55.416;12.952;2022-07-29T05:10:29;6.85;;;4.00;;
64375;SDS011;50700;55.416;12.952;2022-07-29T05:12:55;9.13;;;3.60;;
64375;SDS011;50700;55.416;12.952;2022-07-29T05:15:21;7.22;;;3.63;;
64375;SDS011;50700;55.416;12.952;2022-07-29T05:17:47;6.15;;;3.33;;
64375;SDS011;50700;55.416;12.952;2022-07-29T05:20:14;6.82;;;3.90;;
64375;SDS011;50700;55.416;12.952;2022-07-29T05:22:40;7.70;;;3.50;;
64375;SDS011;50700;55.416;12.952;2022-07-29T05:25:06;10.70;;;3.83;;
64375;SDS011;50700;55.416;12.952;2022-07-29T05:27:34;6.90;;;3.30;;
64375;SDS011;50700;55.416;12.952;2022-07-29T05:30:01;8.23;;;3.50;;
64375;SDS011;50700;55.416;12.952;2022-07-29T05:32:27;5.97;;;3.45;;
64375;SDS011;50700;55.416;12.952;2022-07-29T05:34:53;5.43;;;3.30;;
64375;SDS011;50700;55.416;12.952;2022-07-29T05:37:19;9.50;;;3.22;;
64375;SDS011;50700;55.416;12.952;2022-07-29T05:39:46;7.88;;;3.22;;
64375;SDS011;50700;55.416;12.952;2022-07-29T05:42:12;9.77;;;4.70;;
64375;SDS011;50700;55.416;12.952;2022-07-29T05:44:38;4.72;;;3.13;;
64375;SDS011;50700;55.416;12.952;2022-07-29T05:47:05;9.02;;;3.15;;
64375;SDS011;50700;55.416;12.952;2022-07-29T05:49:31;7.38;;;3.63;;
64375;SDS011;50700;55.416;12.952;2022-07-29T05:51:58;6.45;;;3.22;;
64375;SDS011;50700;55.416;12.952;2022-07-29T05:54:24;6.38;;;2.75;;
64375;SDS011;50700;55.416;12.952;2022-07-29T05:56:50;6.00;;;3.92;;
64375;SDS011;50700;55.416;12.952;2022-07-29T05:59:16;7.43;;;3.45;;
64375;SDS011;50700;55.416;12.952;2022-07-29T06:01:43;7.88;;;3.42;;
64375;SDS011;50700;55.416;12.952;2022-07-29T06:04:09;6.25;;;3.35;;
64375;SDS011;50700;55.416;12.952;2022-07-29T06:06:35;4.47;;;2.95;;
64375;SDS011;50700;55.416;12.952;2022-07-29T06:09:01;4.32;;;2.95;;
64375;SDS011;50700;55.416;12.952;2022-07-29T06:11:27;4.03;;;2.78;;
64375;SDS011;50700;55.416;12.952;2022-07-29T06:13:53;6.72;;;2.90;;
64375;SDS011;50700;55.416;12.952;2022-07-29T06:16:20;8.15;;;3.38;;
64375;SDS011;50700;55.416;12.952;2022-07-29T06:18:46;6.53;;;3.75;;
64375;SDS011;50700;55.416;12.952;2022-07-29T06:21:12;4.97;;;2.95;;
64375;SDS011;50700;55.416;12.952;2022-07-29T06:23:38;6.25;;;3.03;;
64375;SDS011;50700;55.416;12.952;2022-07-29T06:26:05;9.40;;;3.78;;
64375;SDS011;50700;55.416;12.952;2022-07-29T06:28:31;6.40;;;3.15;;
64375;SDS011;50700;55.416;12.952;2022-07-29T06:30:58;5.63;;;3.17;;
64375;SDS011;50700;55.416;12.952;2022-07-29T06:33:24;7.43;;;3.50;;
64375;SDS011;50700;55.416;12.952;2022-07-29T06:35:50;9.32;;;3.10;;
64375;SDS011;50700;55.416;12.952;2022-07-29T06:38:16;6.85;;;3.20;;
64375;SDS011;50700;55.416;12.952;2022-07-29T06:40:43;6.45;;;3.53;;
64375;SDS011;50700;55.416;12.952;2022-07-29T06:43:29;5.47;;;3.05;;
64375;SDS011;50700;55.416;12.952;2022-07-29T06:46:00;4.40;;;3.13;;
64375;SDS011;50700;55.416;12.952;2022-07-29T06:48:27;3.47;;;2.78;;
64375;SDS011;50700;55.416;12.952;2022-07-29T06:50:54;7.18;;;2.88;;
64375;SDS011;50700;55.416;12.952;2022-07-29T06:53:20;4.57;;;3.08;;
64375;SDS011;50700;55.416;12.952;2022-07-29T06:55:46;5.57;;;2.75;;
64375;SDS011;50700;55.416;12.952;2022-07-29T06:58:12;6.97;;;2.83;;
64375;SDS011;50700;55.416;12.952;2022-07-29T07:00:41;5.60;;;2.88;;
64375;SDS011;50700;55.416;12.952;2022-07-29T07:03:07;8.85;;;3.30;;
64375;SDS011;50700;55.416;12.952;2022-07-29T07:05:33;5.05;;;2.55;;
64375;SDS011;50700;55.416;12.952;2022-07-29T07:08:00;4.82;;;2.75;;
64375;SDS011;50700;55.416;12.952;2022-07-29T07:10:26;5.03;;;2.95;;
64375;SDS011;50700;55.416;12.952;2022-07-29T07:12:52;7.35;;;2.80;;
64375;SDS011;50700;55.416;12.952;2022-07-29T07:15:18;4.07;;;2.70;;
64375;SDS011;50700;55.416;12.952;2022-07-29T07:17:50;3.55;;;2.35;;
64375;SDS011;50700;55.416;12.952;2022-07-29T07:20:16;7.43;;;2.55;;
64375;SDS011;50700;55.416;12.952;2022-07-29T07:22:43;3.75;;;2.35;;
64375;SDS011;50700;55.416;12.952;2022-07-29T07:25:09;4.82;;;2.22;;
64375;SDS011;50700;55.416;12.952;2022-07-29T07:27:35;7.28;;;2.42;;
64375;SDS011;50700;55.416;12.952;2022-07-29T07:30:02;3.83;;;2.38;;
64375;SDS011;50700;55.416;12.952;2022-07-29T07:32:30;5.22;;;2.20;;
64375;SDS011;50700;55.416;12.952;2022-07-29T07:34:56;5.03;;;2.20;;
64375;SDS011;50700;55.416;12.952;2022-07-29T07:37:24;3.47;;;2.20;;
64375;SDS011;50700;55.416;12.952;2022-07-29T07:39:51;6.03;;;2.20;;
64375;SDS011;50700;55.416;12.952;2022-07-29T07:42:17;5.30;;;2.20;;
64375;SDS011;50700;55.416;12.952;2022-07-29T07:44:43;5.25;;;2.20;;
64375;SDS011;50700;55.416;12.952;2022-07-29T07:47:11;2.28;;;1.63;;
64375;SDS011;50700;55.416;12.952;2022-07-29T07:49:37;4.20;;;1.83;;
64375;SDS011;50700;55.416;12.952;2022-07-29T07:52:04;5.50;;;1.73;;
64375;SDS011;50700;55.416;12.952;2022-07-29T07:54:30;3.17;;;1.80;;
64375;SDS011;50700;55.416;12.952;2022-07-29T07:56:56;4.35;;;1.83;;
64375;SDS011;50700;55.416;12.952;2022-07-29T07:59:23;3.15;;;1.75;;
64375;SDS011;50700;55.416;12.952;2022-07-29T08:01:49;4.15;;;1.77;;
64375;SDS011;50700;55.416;12.952;2022-07-29T08:04:15;3.78;;;1.98;;
64375;SDS011;50700;55.416;12.952;2022-07-29T08:06:42;5.97;;;1.80;;
64375;SDS011;50700;55.416;12.952;2022-07-29T08:09:08;2.88;;;1.67;;
64375;SDS011;50700;55.416;12.952;2022-07-29T08:11:34;2.80;;;1.77;;
64375;SDS011;50700;55.416;12.952;2022-07-29T08:14:00;4.18;;;2.30;;
64375;SDS011;50700;55.416;12.952;2022-07-29T08:16:27;3.22;;;1.83;;
64375;SDS011;50700;55.416;12.952;2022-07-29T08:18:54;1.95;;;1.60;;
64375;SDS011;50700;55.416;12.952;2022-07-29T08:21:22;7.88;;;2.30;;
64375;SDS011;50700;55.416;12.952;2022-07-29T08:23:49;4.72;;;1.60;;
64375;SDS011;50700;55.416;12.952;2022-07-29T08:26:21;4.13;;;1.45;;
64375;SDS011;50700;55.416;12.952;2022-07-29T08:28:47;5.60;;;1.60;;
64375;SDS011;50700;55.416;12.952;2022-07-29T08:31:16;5.45;;;1.83;;
64375;SDS011;50700;55.416;12.952;2022-07-29T08:33:42;2.55;;;1.40;;
64375;SDS011;50700;55.416;12.952;2022-07-29T08:36:09;6.20;;;1.70;;
64375;SDS011;50700;55.416;12.952;2022-07-29T08:38:35;5.53;;;1.80;;
64375;SDS011;50700;55.416;12.952;2022-07-29T08:41:01;3.13;;;1.25;;
64375;SDS011;50700;55.416;12.952;2022-07-29T08:43:28;4.38;;;1.40;;
64375;SDS011;50700;55.416;12.952;2022-07-29T08:45:54;4.47;;;1.73;;
64375;SDS011;50700;55.416;12.952;2022-07-29T08:48:21;5.55;;;1.52;;
64375;SDS011;50700;55.416;12.952;2022-07-29T08:50:48;5.28;;;2.35;;
64375;SDS011;50700;55.416;12.952;2022-07-29T08:53:16;2.60;;;1.42;;
64375;SDS011;50700;55.416;12.952;2022-07-29T08:55:43;7.22;;;1.60;;
64375;SDS011;50700;55.416;12.952;2022-07-29T08:58:10;1.38;;;1.20;;
64375;SDS011;50700;55.416;12.952;2022-07-29T09:00:37;2.72;;;1.23;;
64375;SDS011;50700;55.416;12.952;2022-07-29T09:03:06;3.90;;;1.60;;
64375;SDS011;50700;55.416;12.952;2022-07-29T09:05:34;3.00;;;1.42;;
64375;SDS011;50700;55.416;12.952;2022-07-29T09:08:00;2.78;;;1.45;;
64375;SDS011;50700;55.416;12.952;2022-07-29T09:10:27;4.10;;;1.50;;
64375;SDS011;50700;55.416;12.952;2022-07-29T09:12:56;5.63;;;1.73;;
64375;SDS011;50700;55.416;12.952;2022-07-29T09:15:23;4.95;;;1.60;;
64375;SDS011;50700;55.416;12.952;2022-07-29T09:17:49;3.78;;;1.75;;
64375;SDS011;50700;55.416;12.952;2022-07-29T09:20:17;5.05;;;1.65;;
64375;SDS011;50700;55.416;12.952;2022-07-29T09:22:43;3.63;;;1.70;;
64375;SDS011;50700;55.416;12.952;2022-07-29T09:25:14;4.93;;;1.40;;
64375;SDS011;50700;55.416;12.952;2022-07-29T09:27:40;4.55;;;1.50;;
64375;SDS011;50700;55.416;12.952;2022-07-29T09:32:56;7.95;;;2.10;;
64375;SDS011;50700;55.416;12.952;2022-07-29T09:35:23;3.90;;;2.17;;
64375;SDS011;50700;55.416;12.952;2022-07-29T09:37:49;3.15;;;1.40;;
64375;SDS011;50700;55.416;12.952;2022-07-29T09:40:19;3.25;;;1.80;;
64375;SDS011;50700;55.416;12.952;2022-07-29T09:42:46;2.40;;;1.60;;
64375;SDS011;50700;55.416;12.952;2022-07-29T09:45:13;2.65;;;1.63;;
64375;SDS011;50700;55.416;12.952;2022-07-29T09:47:52;3.55;;;1.70;;
64375;SDS011;50700;55.416;12.952;2022-07-29T09:50:19;4.88;;;1.70;;
64375;SDS011;50700;55.416;12.952;2022-07-29T09:52:50;6.13;;;1.73;;
64375;SDS011;50700;55.416;12.952;2022-07-29T09:55:16;3.90;;;2.50;;
64375;SDS011;50700;55.416;12.952;2022-07-29T09:57:43;6.38;;;2.42;;
64375;SDS011;50700;55.416;12.952;2022-07-29T10:00:13;4.35;;;1.77;;
64375;SDS011;50700;55.416;12.952;2022-07-29T10:02:41;3.50;;;1.50;;
64375;SDS011;50700;55.416;12.952;2022-07-29T10:05:16;18.17;;;2.00;;
64375;SDS011;50700;55.416;12.952;2022-07-29T10:08:00;3.55;;;1.80;;
64375;SDS011;50700;55.416;12.952;2022-07-29T10:10:34;5.35;;;2.10;;
64375;SDS011;50700;55.416;12.952;2022-07-29T10:13:01;3.08;;;1.77;;
64375;SDS011;50700;55.416;12.952;2022-07-29T10:15:29;4.25;;;2.00;;
64375;SDS011;50700;55.416;12.952;2022-07-29T10:17:57;2.53;;;1.90;;
64375;SDS011;50700;55.416;12.952;2022-07-29T10:20:24;3.08;;;1.83;;
64375;SDS011;50700;55.416;12.952;2022-07-29T10:22:51;4.65;;;2.53;;
64375;SDS011;50700;55.416;12.952;2022-07-29T10:25:18;4.30;;;1.90;;
64375;SDS011;50700;55.416;12.952;2022-07-29T10:27:45;7.57;;;2.85;;
64375;SDS011;50700;55.416;12.952;2022-07-29T10:30:13;6.13;;;2.00;;
64375;SDS011;50700;55.416;12.952;2022-07-29T10:35:31;2.97;;;1.95;;
64375;SDS011;50700;55.416;12.952;2022-07-29T10:38:13;7.35;;;2.42;;
64375;SDS011;50700;55.416;12.952;2022-07-29T10:43:31;4.10;;;1.98;;
64375;SDS011;50700;55.416;12.952;2022-07-29T10:46:01;6.70;;;2.67;;
64375;SDS011;50700;55.416;12.952;2022-07-29T10:48:28;4.18;;;2.15;;
64375;SDS011;50700;55.416;12.952;2022-07-29T10:56:45;6.88;;;2.25;;
64375;SDS011;50700;55.416;12.952;2022-07-29T11:01:47;2.55;;;2.00;;
64375;SDS011;50700;55.416;12.952;2022-07-29T11:04:14;3.10;;;2.08;;
64375;SDS011;50700;55.416;12.952;2022-07-29T11:09:27;9.43;;;2.78;;
64375;SDS011;50700;55.416;12.952;2022-07-29T11:11:56;3.92;;;2.10;;
64375;SDS011;50700;55.416;12.952;2022-07-29T11:17:07;7.10;;;2.42;;
64375;SDS011;50700;55.416;12.952;2022-07-29T11:19:33;8.02;;;2.08;;
64375;SDS011;50700;55.416;12.952;2022-07-29T11:21:59;6.38;;;2.50;;
64375;SDS011;50700;55.416;12.952;2022-07-29T11:24:26;10.18;;;2.70;;
64375;SDS011;50700;55.416;12.952;2022-07-29T11:29:32;4.78;;;2.20;;
64375;SDS011;50700;55.416;12.952;2022-07-29T11:32:08;4.13;;;2.20;;
64375;SDS011;50700;55.416;12.952;2022-07-29T11:34:35;7.63;;;2.92;;
64375;SDS011;50700;55.416;12.952;2022-07-29T11:39:33;5.30;;;2.20;;
64375;SDS011;50700;55.416;12.952;2022-07-29T11:42:43;4.93;;;2.35;;
64375;SDS011;50700;55.416;12.952;2022-07-29T11:44:57;4.05;;;2.10;;
64375;SDS011;50700;55.416;12.952;2022-07-29T11:47:24;2.85;;;2.17;;
64375;SDS011;50700;55.416;12.952;2022-07-29T11:49:51;5.50;;;2.28;;
64375;SDS011;50700;55.416;12.952;2022-07-29T11:52:18;5.65;;;2.00;;
64375;SDS011;50700;55.416;12.952;2022-07-29T11:54:44;3.65;;;2.03;;
64375;SDS011;50700;55.416;12.952;2022-07-29T11:57:12;5.13;;;2.13;;
64375;SDS011;50700;55.416;12.952;2022-07-29T11:59:39;3.67;;;1.83;;
64375;SDS011;50700;55.416;12.952;2022-07-29T12:02:06;4.72;;;1.90;;
64375;SDS011;50700;55.416;12.952;2022-07-29T12:04:33;4.13;;;1.58;;
64375;SDS011;50700;55.416;12.952;2022-07-29T12:07:00;5.18;;;1.92;;
64375;SDS011;50700;55.416;12.952;2022-07-29T12:09:26;1.63;;;1.50;;
64375;SDS011;50700;55.416;12.952;2022-07-29T12:11:56;4.40;;;1.77;;
64375;SDS011;50700;55.416;12.952;2022-07-29T12:16:51;3.80;;;1.67;;
64375;SDS011;50700;55.416;12.952;2022-07-29T12:19:17;2.80;;;1.90;;
64375;SDS011;50700;55.416;12.952;2022-07-29T12:21:47;1.70;;;1.30;;
64375;SDS011;50700;55.416;12.952;2022-07-29T12:24:14;3.55;;;1.65;;
64375;SDS011;50700;55.416;12.952;2022-07-29T12:26:53;3.28;;;1.30;;
64375;SDS011;50700;55.416;12.952;2022-07-29T12:29:20;2.55;;;1.50;;
64375;SDS011;50700;55.416;12.952;2022-07-29T12:31:50;1.48;;;1.05;;
64375;SDS011;50700;55.416;12.952;2022-07-29T12:34:20;3.75;;;1.30;;
64375;SDS011;50700;55.416;12.952;2022-07-29T12:36:48;4.07;;;1.35;;
64375;SDS011;50700;55.416;12.952;2022-07-29T12:39:18;4.32;;;1.48;;
64375;SDS011;50700;55.416;12.952;2022-07-29T12:41:44;3.75;;;1.40;;
64375;SDS011;50700;55.416;12.952;2022-07-29T12:44:10;2.58;;;1.33;;
64375;SDS011;50700;55.416;12.952;2022-07-29T12:46:37;2.80;;;1.10;;
64375;SDS011;50700;55.416;12.952;2022-07-29T12:49:03;2.85;;;1.70;;
64375;SDS011;50700;55.416;12.952;2022-07-29T12:54:12;4.60;;;1.45;;
64375;SDS011;50700;55.416;12.952;2022-07-29T12:56:39;1.38;;;1.05;;
64375;SDS011;50700;55.416;12.952;2022-07-29T13:01:38;4.72;;;1.92;;
64375;SDS011;50700;55.416;12.952;2022-07-29T13:04:04;2.78;;;1.30;;
64375;SDS011;50700;55.416;12.952;2022-07-29T13:09:10;3.10;;;1.40;;
64375;SDS011;50700;55.416;12.952;2022-07-29T13:11:41;2.92;;;1.13;;
64375;SDS011;50700;55.416;12.952;2022-07-29T13:14:08;2.15;;;1.27;;
64375;SDS011;50700;55.416;12.952;2022-07-29T13:16:35;5.15;;;1.30;;
64375;SDS011;50700;55.416;12.952;2022-07-29T13:19:11;5.78;;;1.38;;
64375;SDS011;50700;55.416;12.952;2022-07-29T13:21:38;1.90;;;1.42;;
64375;SDS011;50700;55.416;12.952;2022-07-29T13:24:05;2.15;;;1.20;;
64375;SDS011;50700;55.416;12.952;2022-07-29T13:26:32;3.25;;;1.50;;
64375;SDS011;50700;55.416;12.952;2022-07-29T13:28:58;4.43;;;1.30;;
64375;SDS011;50700;55.416;12.952;2022-07-29T13:31:24;3.90;;;2.45;;
64375;SDS011;50700;55.416;12.952;2022-07-29T13:33:50;2.38;;;1.38;;
64375;SDS011;50700;55.416;12.952;2022-07-29T13:36:17;2.78;;;1.23;;
64375;SDS011;50700;55.416;12.952;2022-07-29T13:38:43;2.88;;;1.40;;
64375;SDS011;50700;55.416;12.952;2022-07-29T13:41:10;2.85;;;1.25;;
64375;SDS011;50700;55.416;12.952;2022-07-29T13:43:36;4.40;;;1.50;;
64375;SDS011;50700;55.416;12.952;2022-07-29T13:46:02;3.05;;;1.33;;
64375;SDS011;50700;55.416;12.952;2022-07-29T13:48:28;4.40;;;1.40;;
64375;SDS011;50700;55.416;12.952;2022-07-29T13:50:56;3.85;;;1.48;;
64375;SDS011;50700;55.416;12.952;2022-07-29T13:53:22;3.25;;;1.30;;
64375;SDS011;50700;55.416;12.952;2022-07-29T13:55:48;1.45;;;1.20;;
64375;SDS011;50700;55.416;12.952;2022-07-29T13:58:16;3.33;;;1.50;;
64375;SDS011;50700;55.416;12.952;2022-07-29T14:00:43;2.20;;;1.30;;
64375;SDS011;50700;55.416;12.952;2022-07-29T14:03:09;4.72;;;1.60;;
64375;SDS011;50700;55.416;12.952;2022-07-29T14:05:35;3.22;;;1.30;;
64375;SDS011;50700;55.416;12.952;2022-07-29T14:08:01;2.47;;;1.50;;
64375;SDS011;50700;55.416;12.952;2022-07-29T14:10:28;3.60;;;1.35;;
64375;SDS011;50700;55.416;12.952;2022-07-29T14:12:54;5.65;;;1.67;;
64375;SDS011;50700;55.416;12.952;2022-07-29T14:15:20;2.65;;;1.48;;
64375;SDS011;50700;55.416;12.952;2022-07-29T14:17:46;4.82;;;1.77;;
64375;SDS011;50700;55.416;12.952;2022-07-29T14:20:12;1.80;;;1.40;;
64375;SDS011;50700;55.416;12.952;2022-07-29T14:22:40;3.78;;;1.45;;
64375;SDS011;50700;55.416;12.952;2022-07-29T14:25:07;3.92;;;1.30;;
64375;SDS011;50700;55.416;12.952;2022-07-29T14:27:34;3.08;;;1.40;;
64375;SDS011;50700;55.416;12.952;2022-07-29T14:30:00;4.72;;;1.90;;
64375;SDS011;50700;55.416;12.952;2022-07-29T14:32:26;2.30;;;1.45;;
64375;SDS011;50700;55.416;12.952;2022-07-29T14:34:53;5.68;;;2.00;;
64375;SDS011;50700;55.416;12.952;2022-07-29T14:37:19;4.03;;;1.48;;
64375;SDS011;50700;55.416;12.952;2022-07-29T14:39:45;4.57;;;1.80;;
64375;SDS011;50700;55.416;12.952;2022-07-29T14:42:11;3.80;;;1.80;;
64375;SDS011;50700;55.416;12.952;2022-07-29T14:44:38;5.15;;;1.50;;
64375;SDS011;50700;55.416;12.952;2022-07-29T14:47:04;5.25;;;1.52;;
64375;SDS011;50700;55.416;12.952;2022-07-29T14:49:31;3.95;;;1.33;;
64375;SDS011;50700;55.416;12.952;2022-07-29T14:51:57;2.75;;;1.83;;
64375;SDS011;50700;55.416;12.952;2022-07-29T14:54:24;3.35;;;1.60;;
64375;SDS011;50700;55.416;12.952;2022-07-29T14:56:50;2.53;;;1.33;;
64375;SDS011;50700;55.416;12.952;2022-07-29T14:59:20;2.63;;;1.38;;
64375;SDS011;50700;55.416;12.952;2022-07-29T15:01:46;4.15;;;1.90;;
64375;SDS011;50700;55.416;12.952;2022-07-29T15:04:12;3.83;;;1.70;;
64375;SDS011;50700;55.416;12.952;2022-07-29T15:06:39;3.72;;;1.90;;
64375;SDS011;50700;55.416;12.952;2022-07-29T15:09:05;2.10;;;1.75;;
64375;SDS011;50700;55.416;12.952;2022-07-29T15:11:31;2.13;;;1.60;;
64375;SDS011;50700;55.416;12.952;2022-07-29T15:13:58;3.05;;;1.83;;
64375;SDS011;50700;55.416;12.952;2022-07-29T15:16:24;2.53;;;1.70;;
64375;SDS011;50700;55.416;12.952;2022-07-29T15:18:50;3.05;;;1.77;;
64375;SDS011;50700;55.416;12.952;2022-07-29T15:21:16;2.47;;;1.48;;
64375;SDS011;50700;55.416;12.952;2022-07-29T15:23:43;4.93;;;2.25;;